createdAt,value
2022-12-05T00:01:40.351Z,98344.24
2022-12-05T00:04:12.052Z,98344.45
2022-12-05T00:06:41.822Z,98350.86
2022-12-05T00:09:12.368Z,98351.34
2022-12-05T00:11:44.068Z,98358.52
2022-12-05T00:14:13.421Z,98355.23
2022-12-05T00:16:43.720Z,98356.78
2022-12-05T00:19:14.672Z,98363.44
2022-12-05T00:21:42.890Z,98373.58
2022-12-05T00:24:14.793Z,98372.20
2022-12-05T00:26:43.567Z,98371.41
2022-12-05T00:29:12.151Z,98364.94
2022-12-05T00:31:40.562Z,98371.33
2022-12-05T00:34:08.150Z,98375.84
2022-12-05T00:36:37.295Z,98379.29
2022-12-05T00:39:10.225Z,98371.22
2022-12-05T00:41:38.484Z,98373.36
2022-12-05T00:44:06.341Z,98373.58
2022-12-05T00:46:35.681Z,98374.34
2022-12-05T00:49:05.874Z,98372.97
2022-12-05T00:51:40.416Z,98371.33
2022-12-05T00:54:13.238Z,98378.28
2022-12-05T00:56:41.995Z,98375.30
2022-12-05T00:59:16.894Z,98379.54
2022-12-05T01:01:46.646Z,98382.73
2022-12-05T01:04:21.122Z,98379.76
2022-12-05T01:06:50.929Z,98383.23
2022-12-05T01:09:20.767Z,98379.48
2022-12-05T01:11:49.684Z,98380.29
2022-12-05T01:14:20.301Z,98377.31
2022-12-05T01:16:50.541Z,98382.66
2022-12-05T01:19:23.642Z,98381.81
2022-12-05T01:21:52.717Z,98378.06
2022-12-05T01:24:24.211Z,98374.28
2022-12-05T01:26:53.739Z,98373.20
2022-12-05T01:29:24.149Z,98372.13
2022-12-05T01:31:55.342Z,98376.64
2022-12-05T01:34:25.825Z,98365.13
2022-12-05T01:36:53.835Z,98371.30
2022-12-05T01:39:24.981Z,98379.09
2022-12-05T01:41:54.259Z,98379.70
2022-12-05T01:44:31.267Z,98380.34
2022-12-05T01:47:02.718Z,98369.45
2022-12-05T01:49:38.068Z,98374.62
2022-12-05T01:52:23.122Z,98368.54
2022-12-05T01:54:55.754Z,98369.61
2022-12-05T01:57:25.088Z,98363.77
2022-12-05T01:59:59.096Z,98364.34
2022-12-05T02:02:28.201Z,98362.73
2022-12-05T02:05:22.158Z,98360.05
2022-12-05T02:07:49.924Z,98356.58
2022-12-05T02:10:18.662Z,98354.70
2022-12-05T02:12:46.945Z,98356.08
2022-12-05T02:15:37.689Z,98356.88
2022-12-05T02:18:52.217Z,98351.56
2022-12-05T02:21:47.567Z,98349.16
2022-12-05T02:25:12.500Z,98348.58
2022-12-05T02:28:02.386Z,98352.06
2022-12-05T02:30:40.162Z,98353.63
2022-12-05T02:33:54.311Z,98354.97
2022-12-05T02:36:35.948Z,98353.63
2022-12-05T02:39:23.579Z,98346.67
2022-12-05T02:42:02.239Z,98354.16
2022-12-05T02:44:41.283Z,98352.80
2022-12-05T02:47:09.938Z,98353.06
2022-12-05T02:49:39.751Z,98346.87
2022-12-05T02:52:11.356Z,98345.27
2022-12-05T02:54:42.642Z,98335.33
2022-12-05T02:57:12.187Z,98341.75
2022-12-05T02:59:40.037Z,98345.76
2022-12-05T03:02:33.649Z,98342.55
2022-12-05T03:05:17.083Z,98344.16
2022-12-05T03:07:48.912Z,98331.00
2022-12-05T03:10:21.310Z,98336.05
2022-12-05T03:12:56.122Z,98336.55
2022-12-05T03:15:32.096Z,98342.16
2022-12-05T03:18:12.631Z,98337.85
2022-12-05T03:20:47.683Z,98333.57
2022-12-05T03:23:31.275Z,98337.31
2022-12-05T03:26:33.383Z,98341.05
2022-12-05T03:29:12.222Z,98343.96
2022-12-05T03:31:59.979Z,98343.66
2022-12-05T03:34:54.061Z,98348.46
2022-12-05T03:37:36.615Z,98350.56
2022-12-05T03:40:12.424Z,98350.03
2022-12-05T03:42:45.316Z,98354.80
2022-12-05T03:45:18.612Z,98344.63
2022-12-05T03:47:54.587Z,98344.86
2022-12-05T03:50:28.722Z,98352.08
2022-12-05T03:55:35.570Z,98344.28
2022-12-05T03:58:11.955Z,98346.19
2022-12-05T04:00:43.863Z,98354.22
2022-12-05T04:03:20.033Z,98362.51
2022-12-05T04:06:01.350Z,98367.06
2022-12-05T04:08:37.039Z,98365.49
2022-12-05T04:11:19.083Z,98368.48
2022-12-05T04:13:54.075Z,98369.55
2022-12-05T04:16:48.108Z,98365.05
2022-12-05T04:19:50.317Z,98374.18
2022-12-05T04:22:19.853Z,98373.16
2022-12-05T04:25:07.942Z,98366.47
2022-12-05T04:28:03.691Z,98365.94
2022-12-05T04:31:11.443Z,98366.02
2022-12-05T04:33:59.327Z,98366.59
2022-12-05T04:36:43.524Z,98372.55
2022-12-05T04:39:25.538Z,98370.45
2022-12-05T04:42:04.300Z,98375.27
2022-12-05T04:44:51.671Z,98375.27
2022-12-05T04:47:22.613Z,98376.30
2022-12-05T04:49:54.211Z,98375.72
2022-12-05T04:52:22.465Z,98373.55
2022-12-05T04:54:58.552Z,98372.66
2022-12-05T04:57:31.017Z,98374.50
2022-12-05T04:59:58.786Z,98380.64
2022-12-05T05:02:34.888Z,98381.10
2022-12-05T05:05:10.934Z,98389.65
2022-12-05T05:07:50.649Z,98394.65
2022-12-05T05:10:33.039Z,98389.25
2022-12-05T05:13:00.528Z,98388.41
2022-12-05T05:15:28.218Z,98386.52
2022-12-05T05:17:55.777Z,98383.28
2022-12-05T05:20:23.468Z,98384.61
2022-12-05T05:22:54.353Z,98382.52
2022-12-05T05:25:24.938Z,98379.31
2022-12-05T05:27:55.651Z,98382.03
2022-12-05T05:30:24.715Z,98379.40
2022-12-05T05:32:54.024Z,98381.31
2022-12-05T05:35:22.161Z,98384.08
2022-12-05T05:37:49.764Z,98376.38
2022-12-05T05:40:17.904Z,98378.05
2022-12-05T05:42:48.224Z,98386.89
2022-12-05T05:45:16.955Z,98387.46
2022-12-05T05:47:45.056Z,98383.45
2022-12-05T05:50:17.813Z,98384.25
2022-12-05T05:52:42.001Z,98384.78
2022-12-05T05:55:10.268Z,98380.23
2022-12-05T05:57:37.734Z,98375.11
2022-12-05T06:00:07.743Z,98375.38
2022-12-05T06:02:36.187Z,98369.45
2022-12-05T06:05:05.232Z,98368.61
2022-12-05T06:07:32.671Z,98380.88
2022-12-05T06:10:00.717Z,98369.64
2022-12-05T06:12:28.772Z,98382.73
2022-12-05T06:14:56.610Z,98382.73
2022-12-05T06:17:24.192Z,98379.77
2022-12-05T06:19:51.823Z,98379.00
2022-12-05T06:22:19.148Z,98378.20
2022-12-05T06:24:47.040Z,98382.78
2022-12-05T06:27:14.624Z,98381.19
2022-12-05T06:29:42.651Z,98387.64
2022-12-05T06:32:10.101Z,98393.80
2022-12-05T06:34:37.711Z,98398.34
2022-12-05T06:37:05.365Z,98401.02
2022-12-05T06:39:33.199Z,98408.73
2022-12-05T06:42:00.944Z,98409.53
2022-12-05T06:44:28.777Z,98412.75
2022-12-05T06:46:56.197Z,98406.91
2022-12-05T06:49:30.750Z,98402.40
2022-12-05T06:51:55.557Z,98405.39
2022-12-05T06:54:22.953Z,98402.83
2022-12-05T06:56:50.680Z,98408.50
2022-12-05T06:59:18.124Z,98411.25
2022-12-05T07:01:46.543Z,98412.12
2022-12-05T07:04:23.004Z,98413.27
2022-12-05T07:06:51.829Z,98411.20
2022-12-05T07:09:25.031Z,98414.22
2022-12-05T07:11:52.538Z,98416.96
2022-12-05T07:16:51.134Z,98417.35
2022-12-05T07:19:18.641Z,98429.47
2022-12-05T07:21:46.015Z,98425.21
2022-12-05T07:24:13.568Z,98422.53
2022-12-05T07:26:41.228Z,98420.68
2022-12-05T07:29:10.347Z,98422.05
2022-12-05T07:31:38.057Z,98427.41
2022-12-05T07:34:05.639Z,98424.22
2022-12-05T07:36:32.972Z,98423.66
2022-12-05T07:39:00.639Z,98425.56
2022-12-05T07:41:30.729Z,98428.51
2022-12-05T07:44:00.060Z,98427.97
2022-12-05T07:46:29.060Z,98426.37
2022-12-05T07:48:57.604Z,98429.31
2022-12-05T07:51:25.259Z,98426.06
2022-12-05T07:53:52.937Z,98423.39
2022-12-05T07:56:21.272Z,98423.90
2022-12-05T07:58:50.209Z,98426.58
2022-12-05T08:01:22.685Z,98431.67
2022-12-05T08:03:52.865Z,98423.90
2022-12-05T08:06:24.352Z,98431.94
2022-12-05T08:08:54.066Z,98430.89
2022-12-05T08:11:26.136Z,98433.58
2022-12-05T08:13:54.310Z,98440.27
2022-12-05T08:16:25.805Z,98445.93
2022-12-05T08:19:05.453Z,98444.89
2022-12-05T08:21:34.179Z,98442.26
2022-12-05T08:24:07.870Z,98447.13
2022-12-05T08:26:36.645Z,98443.97
2022-12-05T08:29:11.188Z,98448.03
2022-12-05T08:31:48.504Z,98447.02
2022-12-05T08:34:19.517Z,98445.72
2022-12-05T08:36:47.712Z,98443.08
2022-12-05T08:39:18.472Z,98452.23
2022-12-05T08:41:47.708Z,98451.69
2022-12-05T08:44:16.582Z,98447.17
2022-12-05T08:46:48.144Z,98443.70
2022-12-05T08:49:17.306Z,98440.52
2022-12-05T08:51:45.523Z,98444.30
2022-12-05T08:54:13.165Z,98440.03
2022-12-05T08:56:41.376Z,98441.95
2022-12-05T08:59:08.761Z,98437.11
2022-12-05T09:01:38.253Z,98437.94
2022-12-05T09:04:07.345Z,98436.59
2022-12-05T09:06:36.244Z,98432.30
2022-12-05T09:09:07.851Z,98422.33
2022-12-05T09:11:41.904Z,98417.73
2022-12-05T09:14:09.531Z,98417.17
2022-12-05T09:16:39.420Z,98413.41
2022-12-05T09:19:20.350Z,98420.11
2022-12-05T09:21:48.073Z,98410.95
2022-12-05T09:24:15.812Z,98412.58
2022-12-05T09:26:44.942Z,98404.77
2022-12-05T09:29:17.053Z,98407.18
2022-12-05T09:31:45.644Z,98403.66
2022-12-05T09:34:14.398Z,98406.09
2022-12-05T09:36:43.083Z,98402.05
2022-12-05T09:39:11.182Z,98403.66
2022-12-05T09:42:31.536Z,98400.97
2022-12-05T09:45:19.788Z,98398.02
2022-12-05T09:48:12.105Z,98386.73
2022-12-05T09:51:01.539Z,98387.80
2022-12-05T09:53:33.884Z,98381.36
2022-12-05T09:56:15.226Z,98385.66
2022-12-05T09:58:47.202Z,98379.21
2022-12-05T10:01:32.546Z,98381.36
2022-12-05T10:04:17.767Z,98380.32
2022-12-05T10:07:11.973Z,98373.85
2022-12-05T10:10:20.519Z,98368.76
2022-12-05T10:13:21.181Z,98374.66
2022-12-05T10:15:57.260Z,98365.50
2022-12-05T10:18:55.571Z,98370.59
2022-12-05T10:21:30.863Z,98356.34
2022-12-05T10:24:02.525Z,98365.22
2022-12-05T10:26:37.060Z,98362.81
2022-12-05T10:29:13.042Z,98361.75
2022-12-05T10:31:42.871Z,98361.72
2022-12-05T10:34:25.452Z,98356.34
2022-12-05T10:37:01.376Z,98353.88
2022-12-05T10:39:28.936Z,98350.39
2022-12-05T10:41:56.571Z,98348.47
2022-12-05T10:44:24.861Z,98340.10
2022-12-05T10:46:52.630Z,98346.80
2022-12-05T10:49:21.745Z,98339.52
2022-12-05T10:51:50.317Z,98343.02
2022-12-05T10:54:28.157Z,98334.64
2022-12-05T10:56:55.974Z,98334.36
2022-12-05T10:59:28.025Z,98326.02
2022-12-05T11:01:58.649Z,98320.09
2022-12-05T11:04:43.593Z,98325.69
2022-12-05T11:07:31.974Z,98325.94
2022-12-05T11:10:04.012Z,98321.64
2022-12-05T11:12:38.499Z,98314.07
2022-12-05T11:15:24.906Z,98321.05
2022-12-05T11:17:55.584Z,98321.27
2022-12-05T11:20:28.474Z,98314.48
2022-12-05T11:22:58.662Z,98307.45
2022-12-05T11:25:31.437Z,98307.44
2022-12-05T11:28:15.925Z,98299.05
2022-12-05T11:31:16.187Z,98294.72
2022-12-05T11:33:49.321Z,98293.91
2022-12-05T11:36:23.876Z,98290.38
2022-12-05T11:38:52.349Z,98288.78
2022-12-05T11:41:40.343Z,98290.12
2022-12-05T11:44:25.637Z,98278.01
2022-12-05T11:47:33.839Z,98273.16
2022-12-05T11:50:36.918Z,98276.61
2022-12-05T11:53:19.031Z,98269.88
2022-12-05T11:56:04.052Z,98264.22
2022-12-05T11:59:02.804Z,98263.73
2022-12-05T12:02:09.251Z,98259.94
2022-12-05T12:05:06.735Z,98254.80
2022-12-05T12:08:14.811Z,98248.86
2022-12-05T12:11:24.565Z,98249.11
2022-12-05T12:14:09.806Z,98250.20
2022-12-05T12:17:00.681Z,98248.86
2022-12-05T12:19:57.240Z,98245.36
2022-12-05T12:22:36.135Z,98241.33
2022-12-05T12:25:22.372Z,98243.52
2022-12-05T12:28:10.401Z,98237.84
2022-12-05T12:31:03.453Z,98239.20
2022-12-05T12:33:45.790Z,98236.23
2022-12-05T12:36:40.003Z,98235.69
2022-12-05T12:39:29.913Z,98232.39
2022-12-05T12:42:23.822Z,98230.47
2022-12-05T12:45:06.082Z,98232.27
2022-12-05T12:48:03.101Z,98236.53
2022-12-05T12:50:36.599Z,98230.58
2022-12-05T12:53:32.729Z,98233.20
2022-12-05T12:56:11.459Z,98231.86
2022-12-05T12:59:23.230Z,98229.66
2022-12-05T13:02:25.471Z,98231.55
2022-12-05T13:05:23.093Z,98222.05
2022-12-05T13:08:19.142Z,98219.84
2022-12-05T13:10:48.908Z,98223.86
2022-12-05T13:13:27.458Z,98231.09
2022-12-05T13:16:00.261Z,98224.66
2022-12-05T13:18:28.388Z,98228.72
2022-12-05T13:21:00.865Z,98225.27
2022-12-05T13:23:32.944Z,98227.19
2022-12-05T13:26:04.966Z,98225.31
2022-12-05T13:28:55.605Z,98220.75
2022-12-05T13:31:42.055Z,98221.80
2022-12-05T13:34:34.698Z,98218.56
2022-12-05T13:37:31.770Z,98221.27
2022-12-05T13:40:17.861Z,98227.80
2022-12-05T13:42:48.071Z,98223.77
2022-12-05T13:45:20.064Z,98221.64
2022-12-05T13:47:56.597Z,98221.14
2022-12-05T13:50:45.376Z,98216.31
2022-12-05T13:53:39.238Z,98209.33
2022-12-05T13:56:20.965Z,98219.32
2022-12-05T13:58:57.254Z,98218.79
2022-12-05T14:01:48.973Z,98215.59
2022-12-05T14:04:47.527Z,98214.81
2022-12-05T14:07:36.439Z,98220.20
2022-12-05T14:10:05.531Z,98213.77
2022-12-05T14:12:53.568Z,98215.96
2022-12-05T14:15:38.234Z,98216.77
2022-12-05T14:18:20.188Z,98221.38
2022-12-05T14:21:05.231Z,98217.39
2022-12-05T14:24:10.629Z,98219.05
2022-12-05T14:26:59.617Z,98213.72
2022-12-05T14:30:08.839Z,98222.11
2022-12-05T14:32:41.704Z,98214.89
2022-12-05T14:35:33.667Z,98216.58
2022-12-05T14:38:06.457Z,98216.05
2022-12-05T14:40:37.956Z,98213.66
2022-12-05T14:43:27.838Z,98208.06
2022-12-05T14:46:03.378Z,98209.72
2022-12-05T14:48:47.297Z,98217.30
2022-12-05T14:51:35.533Z,98214.36
2022-12-05T14:54:16.394Z,98214.41
2022-12-05T14:56:54.952Z,98216.05
2022-12-05T14:59:51.761Z,98212.56
2022-12-05T15:02:27.151Z,98209.87
2022-12-05T15:05:27.137Z,98210.17
2022-12-05T15:07:58.861Z,98213.16
2022-12-05T15:10:42.515Z,98216.94
2022-12-05T15:13:17.373Z,98213.16
2022-12-05T15:16:05.802Z,98211.57
2022-12-05T15:18:57.305Z,98207.03
2022-12-05T15:21:43.162Z,98210.26
2022-12-05T15:24:17.189Z,98208.37
2022-12-05T15:26:52.798Z,98208.08
2022-12-05T15:29:25.924Z,98209.41
2022-12-05T15:32:19.722Z,98214.20
2022-12-05T15:35:09.431Z,98215.00
2022-12-05T15:37:57.127Z,98212.27
2022-12-05T15:40:25.698Z,98213.31
2022-12-05T15:42:56.077Z,98219.48
2022-12-05T15:45:29.473Z,98208.98
2022-12-05T15:48:11.336Z,98213.27
2022-12-05T15:50:49.296Z,98206.28
2022-12-05T15:53:46.422Z,98203.04
2022-12-05T15:56:21.898Z,98204.10
2022-12-05T15:59:18.845Z,98201.16
2022-12-05T16:01:52.177Z,98200.66
2022-12-05T16:04:29.408Z,98205.23
2022-12-05T16:06:56.292Z,98206.34
2022-12-05T16:09:31.393Z,98204.20
2022-12-05T16:12:28.868Z,98206.12
2022-12-05T16:15:01.945Z,98204.25
2022-12-05T16:17:40.106Z,98202.95
2022-12-05T16:20:31.536Z,98204.33
2022-12-05T16:23:07.702Z,98199.25
2022-12-05T16:25:36.970Z,98201.69
2022-12-05T16:28:16.164Z,98195.01
2022-12-05T16:31:02.047Z,98187.23
2022-12-05T16:33:31.669Z,98188.87
2022-12-05T16:36:13.607Z,98189.41
2022-12-05T16:38:42.679Z,98193.45
2022-12-05T16:41:12.006Z,98188.08
2022-12-05T16:43:44.812Z,98187.81
2022-12-05T16:46:19.829Z,98188.91
2022-12-05T16:49:08.073Z,98198.87
2022-12-05T16:51:45.335Z,98197.55
2022-12-05T16:54:12.765Z,98205.37
2022-12-05T16:56:41.633Z,98207.29
2022-12-05T16:59:14.131Z,98196.82
2022-12-05T17:01:41.837Z,98208.89
2022-12-05T17:04:11.286Z,98207.31
2022-12-05T17:06:39.267Z,98203.85
2022-12-05T17:09:06.848Z,98203.88
2022-12-05T17:11:38.341Z,98205.50
2022-12-05T17:14:10.762Z,98206.84
2022-12-05T17:16:38.631Z,98202.03
2022-12-05T17:19:06.379Z,98198.57
2022-12-05T17:21:35.197Z,98202.34
2022-12-05T17:24:03.335Z,98202.87
2022-12-05T17:26:31.478Z,98200.19
2022-12-05T17:28:58.955Z,98197.25
2022-12-05T17:31:26.545Z,98195.36
2022-12-05T17:33:56.611Z,98198.84
2022-12-05T17:36:24.144Z,98200.73
2022-12-05T17:38:51.940Z,98195.63
2022-12-05T17:41:23.295Z,98205.83
2022-12-05T17:43:52.359Z,98199.65
2022-12-05T17:46:23.234Z,98194.27
2022-12-05T17:48:51.950Z,98192.93
2022-12-05T17:51:20.495Z,98192.41
2022-12-05T17:53:48.571Z,98194.81
2022-12-05T17:56:16.689Z,98198.33
2022-12-05T17:58:44.768Z,98201.80
2022-12-05T18:01:19.067Z,98194.31
2022-12-05T18:03:48.328Z,98201.56
2022-12-05T18:06:16.955Z,98198.33
2022-12-05T18:08:45.310Z,98197.27
2022-12-05T18:11:14.318Z,98197.54
2022-12-05T18:13:42.166Z,98201.05
2022-12-05T18:16:10.566Z,98195.70
2022-12-05T18:18:39.025Z,98191.66
2022-12-05T18:21:11.109Z,98188.19
2022-12-05T18:23:40.188Z,98189.24
2022-12-05T18:26:10.322Z,98189.00
2022-12-05T18:28:41.203Z,98192.22
2022-12-05T18:31:14.819Z,98188.20
2022-12-05T18:33:44.504Z,98198.14
2022-12-05T18:36:17.255Z,98185.52
2022-12-05T18:38:54.973Z,98188.47
2022-12-05T18:41:25.939Z,98192.50
2022-12-05T18:43:54.379Z,98203.77
2022-12-05T18:46:22.161Z,98200.27
2022-12-05T18:48:49.713Z,98199.19
2022-12-05T18:51:23.474Z,98194.91
2022-12-05T18:53:53.840Z,98195.17
2022-12-05T18:56:26.549Z,98196.23
2022-12-05T18:59:04.235Z,98200.53
2022-12-05T19:01:35.542Z,98199.75
2022-12-05T19:04:05.923Z,98194.36
2022-12-05T19:06:39.312Z,98196.80
2022-12-05T19:09:11.942Z,98195.19
2022-12-05T19:11:47.704Z,98189.81
2022-12-05T19:14:20.822Z,98191.95
2022-12-05T19:16:57.869Z,98189.81
2022-12-05T19:19:21.506Z,98192.20
2022-12-05T19:21:48.930Z,98195.94
2022-12-05T19:24:19.018Z,98186.54
2022-12-05T19:26:47.694Z,98182.73
2022-12-05T19:29:16.141Z,98183.80
2022-12-05T19:31:44.706Z,98184.58
2022-12-05T19:34:12.696Z,98175.38
2022-12-05T19:36:44.123Z,98175.09
2022-12-05T19:39:23.559Z,98177.23
2022-12-05T19:41:51.762Z,98179.38
2022-12-05T19:44:19.389Z,98177.23
2022-12-05T19:46:49.126Z,98176.98
2022-12-05T19:49:16.977Z,98171.63
2022-12-05T19:51:45.914Z,98173.52
2022-12-05T19:54:16.827Z,98167.34
2022-12-05T19:56:45.075Z,98172.17
2022-12-05T19:59:16.842Z,98166.54
2022-12-05T20:01:45.095Z,98163.37
2022-12-05T20:04:16.956Z,98158.81
2022-12-05T20:06:48.174Z,98152.67
2022-12-05T20:09:18.993Z,98156.17
2022-12-05T20:11:55.244Z,98152.97
2022-12-05T20:14:21.080Z,98155.66
2022-12-05T20:16:49.740Z,98154.84
2022-12-05T20:19:17.630Z,98155.41
2022-12-05T20:21:45.172Z,98153.80
2022-12-05T20:24:12.719Z,98157.84
2022-12-05T20:26:43.805Z,98155.43
2022-12-05T20:29:12.026Z,98158.65
2022-12-05T20:31:43.448Z,98152.77
2022-12-05T20:34:13.128Z,98156.53
2022-12-05T20:36:41.271Z,98154.64
2022-12-05T20:39:13.349Z,98145.78
2022-12-05T20:41:41.245Z,98143.91
2022-12-05T20:44:13.435Z,98138.53
2022-12-05T20:46:41.567Z,98137.99
2022-12-05T20:49:12.095Z,98133.72
2022-12-05T20:51:43.771Z,98138.26
2022-12-05T20:54:12.718Z,98132.09
2022-12-05T20:56:40.894Z,98130.20
2022-12-05T20:59:11.652Z,98130.98
2022-12-05T21:01:40.603Z,98131.24
2022-12-05T21:04:10.338Z,98134.45
2022-12-05T21:06:42.328Z,98130.14
2022-12-05T21:09:12.867Z,98129.30
2022-12-05T21:11:41.619Z,98132.23
2022-12-05T21:14:09.219Z,98129.81
2022-12-05T21:16:37.223Z,98124.13
2022-12-05T21:19:04.859Z,98121.44
2022-12-05T21:21:33.541Z,98123.05
2022-12-05T21:24:03.437Z,98112.27
2022-12-05T21:26:34.205Z,98115.75
2022-12-05T21:29:03.736Z,98114.15
2022-12-05T21:31:41.763Z,98113.35
2022-12-05T21:34:16.654Z,98114.70
2022-12-05T21:36:45.021Z,98112.01
2022-12-05T21:39:13.650Z,98113.38
2022-12-05T21:41:41.424Z,98112.84
2022-12-05T21:44:09.296Z,98111.78
2022-12-05T21:46:37.103Z,98106.95
2022-12-05T21:49:05.158Z,98105.89
2022-12-05T21:51:33.045Z,98106.47
2022-12-05T21:54:00.739Z,98104.04
2022-12-05T21:56:28.933Z,98104.33
2022-12-05T21:58:56.628Z,98097.61
2022-12-05T22:01:27.128Z,98093.33
2022-12-05T22:04:00.322Z,98097.61
2022-12-05T22:06:33.857Z,98096.02
2022-12-05T22:09:02.447Z,98095.47
2022-12-05T22:11:30.651Z,98095.75
2022-12-05T22:13:58.514Z,98089.84
2022-12-05T22:16:32.361Z,98092.78
2022-12-05T22:18:55.528Z,98083.13
2022-12-05T22:21:23.507Z,98075.61
2022-12-05T22:23:50.925Z,98068.09
2022-12-05T22:26:22.492Z,98071.33
2022-12-05T22:28:52.673Z,98067.30
2022-12-05T22:31:21.612Z,98066.75
2022-12-05T22:33:49.599Z,98072.38
2022-12-05T22:36:19.180Z,98066.73
2022-12-05T22:38:48.059Z,98079.03
2022-12-05T22:41:23.593Z,98072.03
2022-12-05T22:43:56.159Z,98060.45
2022-12-05T22:46:26.089Z,98062.59
2022-12-05T22:48:53.910Z,98061.18
2022-12-05T22:51:22.883Z,98052.56
2022-12-05T22:53:52.084Z,98060.05
2022-12-05T22:56:22.720Z,98055.45
2022-12-05T22:58:58.136Z,98047.59
2022-12-05T23:01:31.096Z,98051.83
2022-12-05T23:04:05.309Z,98045.64
2022-12-05T23:06:34.977Z,98049.13
2022-12-05T23:09:06.271Z,98048.03
2022-12-05T23:11:34.428Z,98041.60
2022-12-05T23:14:02.806Z,98035.98
2022-12-05T23:16:33.070Z,98035.44
2022-12-05T23:19:04.169Z,98029.86
2022-12-05T23:21:37.116Z,98031.51
2022-12-05T23:24:09.490Z,98033.12
2022-12-05T23:26:43.671Z,98028.33
2022-12-05T23:29:12.785Z,98025.94
2022-12-05T23:31:41.454Z,98025.70
2022-12-05T23:34:09.589Z,98023.84
2022-12-05T23:36:37.789Z,98032.75
2022-12-05T23:39:05.392Z,98025.53
2022-12-05T23:41:33.681Z,98028.25
2022-12-05T23:44:03.101Z,98023.17
2022-12-05T23:46:31.239Z,98022.13
2022-12-05T23:48:58.926Z,98024.27
2022-12-05T23:51:30.667Z,98017.04
2022-12-05T23:54:00.952Z,98018.92
2022-12-05T23:56:32.400Z,98022.16
2022-12-05T23:59:02.038Z,98015.19
